Time;durP1;ratioP1;P1;durP2;ratioP2;P2;SDS_P1;SDS_P2;PMS_P1;PMS_P2;Temp;Humidity;BMP_temperature;BMP_pressure;BME280_temperature;BME280_humidity;BME280_pressure;Samples;Min_cycle;Max_cycle;Signal;HPM_P1;HPM_P2
2021/10/14 00:02:03;;;;;;;26.50;9.10;;;;;;;2.99;81.17;100996.00;112989;1198;24019;-57
2021/10/14 00:04:35;;;;;;;27.20;9.20;;;;;;;2.94;81.14;100996.90;113373;1192;24056;-60
2021/10/14 00:07:07;;;;;;;25.20;8.20;;;;;;;2.91;81.19;100998.74;112966;1198;22463;-58
2021/10/14 00:09:38;;;;;;;22.80;8.00;;;;;;;2.88;81.14;100998.46;112936;1198;22470;-57
2021/10/14 00:12:12;;;;;;;24.60;7.70;;;;;;;2.88;81.28;100995.70;112876;1198;22423;-59
2021/10/14 00:14:42;;;;;;;20.40;6.80;;;;;;;2.87;81.12;100996.50;112974;1198;22407;-61
2021/10/14 00:17:13;;;;;;;20.10;7.60;;;;;;;2.83;81.02;100995.69;113033;1198;23734;-59
2021/10/14 00:19:44;;;;;;;19.20;6.70;;;;;;;2.79;81.03;100989.55;113037;1198;24062;-60
2021/10/14 00:22:16;;;;;;;21.10;6.90;;;;;;;2.76;81.03;100992.52;113045;1198;22416;-60
2021/10/14 00:24:47;;;;;;;20.20;7.30;;;;;;;2.74;81.02;100988.29;113008;1198;24062;-60
2021/10/14 00:27:18;;;;;;;20.90;7.10;;;;;;;2.70;81.03;100987.91;113027;1198;22431;-59
2021/10/14 00:29:52;;;;;;;21.80;7.30;;;;;;;2.68;81.16;100987.23;113027;1198;25053;-58
2021/10/14 00:32:23;;;;;;;20.70;6.80;;;;;;;2.66;81.17;100987.65;112882;1198;22439;-60
2021/10/14 00:34:54;;;;;;;22.10;7.60;;;;;;;2.62;81.15;100990.29;113009;1198;22960;-57
2021/10/14 00:37:24;;;;;;;18.20;6.20;;;;;;;2.60;81.26;100988.58;112974;1198;22445;-59
2021/10/14 00:39:55;;;;;;;20.40;7.40;;;;;;;2.58;81.17;100984.95;112884;1198;26348;-55
2021/10/14 00:42:26;;;;;;;21.80;7.00;;;;;;;2.56;81.14;100987.02;113071;1198;25043;-61
2021/10/14 00:45:03;;;;;;;22.30;7.40;;;;;;;2.53;81.07;100988.06;113253;1192;22431;-59
2021/10/14 00:47:34;;;;;;;22.20;7.70;;;;;;;2.50;81.04;100985.89;113200;1198;22482;-60
2021/10/14 00:50:07;;;;;;;22.30;7.80;;;;;;;2.44;80.91;100991.30;113111;1198;22420;-61
2021/10/14 00:52:41;;;;;;;21.80;7.30;;;;;;;2.40;80.87;100990.06;113098;1198;22495;-62
2021/10/14 00:55:18;;;;;;;19.90;6.80;;;;;;;2.37;80.95;100991.10;112917;1192;25107;-60
2021/10/14 00:57:50;;;;;;;20.40;6.40;;;;;;;2.33;80.96;100993.49;113099;1198;24087;-61
2021/10/14 01:00:21;;;;;;;21.20;6.90;;;;;;;2.30;80.91;100992.18;113134;1190;22461;-61
2021/10/14 01:02:54;;;;;;;22.80;7.80;;;;;;;2.27;81.04;100995.20;113067;1198;22429;-59
2021/10/14 01:05:25;;;;;;;20.40;6.00;;;;;;;2.25;81.00;100990.58;113097;1198;22949;-60
2021/10/14 01:07:56;;;;;;;20.20;7.30;;;;;;;2.22;81.17;100991.77;112991;1192;24995;-58
2021/10/14 01:10:27;;;;;;;17.90;6.50;;;;;;;2.21;81.33;100996.90;113064;1200;22501;-58
2021/10/14 01:12:59;;;;;;;21.90;7.60;;;;;;;2.19;81.46;100993.52;112983;1193;24042;-60
2021/10/14 01:15:29;;;;;;;24.10;7.00;;;;;;;2.19;81.66;100990.44;113081;1198;22469;-59
2021/10/14 01:18:03;;;;;;;19.70;7.20;;;;;;;2.21;81.75;100990.85;112795;1199;25042;-62
2021/10/14 01:20:35;;;;;;;20.30;7.70;;;;;;;2.21;81.89;100991.08;112708;1200;23119;-58
2021/10/14 01:23:10;;;;;;;19.10;7.00;;;;;;;2.23;82.08;100988.30;112599;1200;25003;-57
2021/10/14 01:25:40;;;;;;;19.80;7.30;;;;;;;2.25;82.21;100988.20;112725;1200;24069;-57
2021/10/14 01:28:11;;;;;;;21.00;7.40;;;;;;;2.27;82.31;100980.55;112762;1200;22563;-60
2021/10/14 01:30:42;;;;;;;21.70;7.80;;;;;;;2.29;82.52;100976.75;112931;1200;22435;-63
2021/10/14 01:33:13;;;;;;;19.70;7.10;;;;;;;2.32;82.62;100976.98;112662;1200;24235;-58
2021/10/14 01:35:44;;;;;;;19.40;7.90;;;;;;;2.35;82.65;100980.65;112662;1192;22883;-61
2021/10/14 01:38:14;;;;;;;23.20;8.90;;;;;;;2.38;82.82;100973.54;112700;1200;25000;-60
2021/10/14 01:40:46;;;;;;;24.20;9.10;;;;;;;2.42;82.88;100971.45;112698;1199;22881;-60
2021/10/14 01:43:17;;;;;;;26.30;10.40;;;;;;;2.45;82.96;100975.61;112888;1200;22508;-59
2021/10/14 01:45:48;;;;;;;25.70;9.80;;;;;;;2.47;83.01;100972.91;112896;1200;22463;-61
2021/10/14 01:48:20;;;;;;;25.40;9.80;;;;;;;2.51;83.11;100974.92;112708;1195;24830;-60
2021/10/14 01:50:51;;;;;;;29.70;11.60;;;;;;;2.55;83.16;100970.33;112679;1193;24168;-59
2021/10/14 01:53:22;;;;;;;25.60;10.00;;;;;;;2.57;83.20;100970.31;112754;1200;22428;-60
2021/10/14 01:55:53;;;;;;;24.90;10.10;;;;;;;2.61;83.31;100971.47;112707;1200;22432;-60
2021/10/14 01:58:24;;;;;;;21.80;8.80;;;;;;;2.61;83.36;100970.36;112780;1194;24048;-60
2021/10/14 02:00:55;;;;;;;26.70;10.20;;;;;;;2.63;83.47;100969.48;112838;1200;22427;-59
2021/10/14 02:03:26;;;;;;;26.20;10.10;;;;;;;2.64;83.50;100963.40;112828;1200;24064;-58
2021/10/14 02:05:57;;;;;;;23.50;9.20;;;;;;;2.66;83.42;100954.48;112692;1200;24249;-59
2021/10/14 02:08:30;;;;;;;26.50;10.20;;;;;;;2.68;83.48;100951.15;112923;1198;24705;-59
2021/10/14 02:11:01;;;;;;;25.00;9.40;;;;;;;2.70;83.52;100949.23;113356;1198;22557;-60
2021/10/14 02:13:32;;;;;;;22.40;9.50;;;;;;;2.71;83.55;100946.31;113018;1198;25213;-57
2021/10/14 02:16:02;;;;;;;24.60;9.00;;;;;;;2.74;83.67;100946.44;113751;1170;24090;-57
2021/10/14 02:18:34;;;;;;;24.10;9.30;;;;;;;2.77;83.65;100941.94;113096;1198;22496;-59
2021/10/14 02:21:05;;;;;;;21.10;9.00;;;;;;;2.78;83.76;100942.00;113330;1192;24052;-58
2021/10/14 02:23:36;;;;;;;23.70;9.70;;;;;;;2.79;83.75;100940.02;113253;1198;22440;-57
2021/10/14 02:26:07;;;;;;;25.50;9.20;;;;;;;2.80;83.66;100941.58;113334;1198;22520;-56
2021/10/14 02:28:38;;;;;;;23.10;8.40;;;;;;;2.80;83.64;100943.48;113112;1191;24176;-55
2021/10/14 02:31:09;;;;;;;24.10;8.90;;;;;;;2.80;83.58;100946.30;113209;1198;25006;-57
2021/10/14 02:33:40;;;;;;;25.80;8.80;;;;;;;2.81;83.49;100950.56;113104;1198;24654;-57
2021/10/14 02:36:11;;;;;;;21.20;9.30;;;;;;;2.83;83.50;100950.53;113000;1198;22415;-58
2021/10/14 02:38:44;;;;;;;21.20;8.60;;;;;;;2.85;83.57;100952.80;113161;1198;22417;-57
2021/10/14 02:41:14;;;;;;;23.40;6.90;;;;;;;2.86;83.59;100952.94;113070;1198;22462;-56
2021/10/14 02:43:45;;;;;;;23.60;7.20;;;;;;;2.86;83.57;100950.10;113169;1191;22429;-58
2021/10/14 02:46:16;;;;;;;23.00;8.20;;;;;;;2.86;83.58;100945.92;113181;1192;25139;-57
2021/10/14 02:48:47;;;;;;;22.20;8.40;;;;;;;2.86;83.63;100946.41;113237;1198;22436;-57
2021/10/14 02:51:18;;;;;;;26.00;10.00;;;;;;;2.84;83.58;100944.77;113107;1198;22434;-59
2021/10/14 02:53:50;;;;;;;22.60;8.50;;;;;;;2.85;83.53;100942.09;113140;1198;22444;-55
2021/10/14 02:56:20;;;;;;;25.80;9.50;;;;;;;2.84;83.57;100942.25;113077;1198;22535;-61
2021/10/14 02:58:51;;;;;;;23.20;8.70;;;;;;;2.84;83.55;100943.84;113130;1198;25026;-55
2021/10/14 03:01:22;;;;;;;25.10;9.40;;;;;;;2.84;83.59;100941.63;113142;1198;25059;-59
2021/10/14 03:03:53;;;;;;;26.90;8.70;;;;;;;2.83;83.59;100946.91;113238;1198;25141;-56
2021/10/14 03:06:23;;;;;;;22.00;8.20;;;;;;;2.83;83.57;100954.63;113108;1198;22434;-56
2021/10/14 03:08:54;;;;;;;21.90;8.40;;;;;;;2.81;83.54;100957.80;113079;1198;22774;-57
2021/10/14 03:11:26;;;;;;;24.90;8.30;;;;;;;2.81;83.50;100956.16;113217;1198;25109;-56
2021/10/14 03:13:56;;;;;;;24.20;9.40;;;;;;;2.79;83.38;100957.73;113161;1198;24057;-59
2021/10/14 03:16:27;;;;;;;22.40;8.40;;;;;;;2.77;83.30;100961.06;113232;1192;22433;-57
2021/10/14 03:18:58;;;;;;;19.00;7.30;;;;;;;2.75;83.34;100967.47;113072;1198;22465;-55
2021/10/14 03:21:29;;;;;;;22.80;8.20;;;;;;;2.73;83.34;100967.64;113089;1198;23107;-58
2021/10/14 03:24:00;;;;;;;20.40;8.00;;;;;;;2.71;83.31;100967.59;113080;1193;22437;-57
2021/10/14 03:26:30;;;;;;;22.20;7.50;;;;;;;2.69;83.31;100968.00;113053;1192;22431;-59
2021/10/14 03:29:01;;;;;;;21.30;7.40;;;;;;;2.68;83.27;100963.98;113184;1198;24053;-57
2021/10/14 03:31:32;;;;;;;23.60;7.30;;;;;;;2.66;83.37;100966.61;113152;1198;22428;-54
2021/10/14 03:34:03;;;;;;;20.40;7.40;;;;;;;2.65;83.39;100972.61;113045;1192;22591;-54
2021/10/14 03:36:33;;;;;;;18.90;7.50;;;;;;;2.64;83.35;100971.27;113188;1198;22432;-56
2021/10/14 03:39:05;;;;;;;22.00;8.10;;;;;;;2.62;83.32;100972.79;113226;1198;22420;-54
2021/10/14 03:41:36;;;;;;;22.30;7.20;;;;;;;2.62;83.32;100969.16;113133;1193;22416;-57
2021/10/14 03:44:07;;;;;;;22.00;8.10;;;;;;;2.62;83.37;100968.54;113064;1198;22467;-59
2021/10/14 03:46:38;;;;;;;21.60;7.80;;;;;;;2.61;83.30;100966.43;113196;1198;22470;-58
2021/10/14 03:49:09;;;;;;;26.20;9.80;;;;;;;2.60;83.36;100965.48;113061;1192;22947;-56
2021/10/14 03:51:40;;;;;;;27.70;9.70;;;;;;;2.60;83.47;100965.56;113205;1195;24239;-57
2021/10/14 03:54:12;;;;;;;27.70;9.60;;;;;;;2.61;83.47;100964.86;113146;1198;22413;-54
2021/10/14 03:56:42;;;;;;;27.90;11.00;;;;;;;2.61;83.54;100964.61;113239;1192;25065;-56
2021/10/14 03:59:13;;;;;;;24.50;9.80;;;;;;;2.60;83.45;100966.98;113201;1198;22441;-56
2021/10/14 04:01:46;;;;;;;24.00;9.60;;;;;;;2.58;83.52;100966.91;113084;1190;25549;-55
2021/10/14 04:04:17;;;;;;;23.50;8.50;;;;;;;2.58;83.54;100971.48;113168;1198;22464;-56
2021/10/14 04:06:48;;;;;;;25.20;9.20;;;;;;;2.58;83.69;100968.48;113099;1198;24051;-58
2021/10/14 04:09:19;;;;;;;26.60;8.90;;;;;;;2.59;83.82;100973.84;113084;1193;22444;-59
2021/10/14 04:11:50;;;;;;;29.10;10.20;;;;;;;2.62;83.92;100976.89;113110;1198;22590;-56
2021/10/14 04:14:22;;;;;;;29.50;14.00;;;;;;;2.63;84.01;100976.17;113292;1192;22892;-61
2021/10/14 04:16:53;;;;;;;36.80;15.60;;;;;;;2.64;84.06;100974.42;113062;1193;22425;-59
2021/10/14 04:19:24;;;;;;;34.10;16.00;;;;;;;2.65;84.13;100979.15;113060;1198;22420;-55
2021/10/14 04:21:54;;;;;;;31.90;15.60;;;;;;;2.65;84.14;100977.26;113427;1198;24160;-57
2021/10/14 04:24:27;;;;;;;36.30;15.40;;;;;;;2.66;84.27;100976.55;113145;1193;22427;-58
2021/10/14 04:26:58;;;;;;;35.10;15.40;;;;;;;2.67;84.33;100973.46;113166;1198;22437;-57
2021/10/14 04:29:31;;;;;;;35.10;14.20;;;;;;;2.67;84.38;100969.83;113027;1198;22460;-57
2021/10/14 04:32:03;;;;;;;32.90;13.60;;;;;;;2.68;84.49;100974.48;113065;1198;22436;-60
2021/10/14 04:34:35;;;;;;;35.50;13.60;;;;;;;2.71;84.55;100977.19;113251;1198;22398;-58
2021/10/14 04:37:07;;;;;;;38.90;15.00;;;;;;;2.74;84.61;100976.69;113575;1198;22444;-60
2021/10/14 04:39:40;;;;;;;45.20;14.50;;;;;;;2.76;84.74;100968.02;113363;1198;22579;-58
2021/10/14 04:42:10;;;;;;;35.90;13.80;;;;;;;2.79;84.78;100967.27;113237;1198;22431;-58
2021/10/14 04:44:41;;;;;;;36.80;13.50;;;;;;;2.81;84.93;100964.98;113153;1198;25454;-60
2021/10/14 04:47:18;;;;;;;31.70;10.60;;;;;;;2.85;85.08;100962.10;113136;1192;24082;-58
2021/10/14 04:49:49;;;;;;;32.20;11.50;;;;;;;2.88;85.23;100960.65;113216;1192;24139;-58
2021/10/14 04:52:20;;;;;;;26.20;10.00;;;;;;;2.92;85.30;100960.52;113072;1192;25328;-59
2021/10/14 04:54:51;;;;;;;31.60;11.40;;;;;;;2.94;85.30;100961.21;113113;1198;22427;-55
2021/10/14 04:57:25;;;;;;;32.80;10.40;;;;;;;2.97;85.48;100962.21;112829;1194;22553;-58
2021/10/14 04:59:56;;;;;;;28.70;9.80;;;;;;;2.99;85.45;100958.40;112929;1193;22482;-60
2021/10/14 05:02:27;;;;;;;26.10;11.30;;;;;;;3.02;85.50;100961.36;112972;1198;22424;-54
2021/10/14 05:04:58;;;;;;;24.90;9.00;;;;;;;3.05;85.58;100964.88;113029;1198;24101;-57
2021/10/14 05:07:29;;;;;;;25.60;10.40;;;;;;;3.07;85.67;100965.48;113011;1198;25023;-57
2021/10/14 05:10:00;;;;;;;28.10;10.90;;;;;;;3.08;85.63;100968.23;113140;1198;22453;-57
2021/10/14 05:12:31;;;;;;;33.00;10.30;;;;;;;3.12;85.67;100971.42;113178;1198;23245;-58
2021/10/14 05:15:04;;;;;;;27.30;10.50;;;;;;;3.15;85.78;100971.23;113117;1198;22437;-58
2021/10/14 05:17:36;;;;;;;32.80;12.50;;;;;;;3.19;85.87;100977.27;113172;1198;24188;-56
2021/10/14 05:20:09;;;;;;;28.70;10.40;;;;;;;3.23;85.95;100973.58;113019;1192;25136;-58
2021/10/14 05:22:41;;;;;;;30.60;11.50;;;;;;;3.26;85.97;100971.90;113524;1198;22422;-58
2021/10/14 05:25:12;;;;;;;31.90;10.90;;;;;;;3.30;85.98;100971.94;113557;1198;22574;-58
2021/10/14 05:27:45;;;;;;;29.30;9.90;;;;;;;3.33;85.94;100974.98;113013;1198;22501;-58
2021/10/14 05:30:16;;;;;;;24.00;9.40;;;;;;;3.36;86.06;100963.19;113180;1184;22795;-56
2021/10/14 05:32:48;;;;;;;27.40;10.30;;;;;;;3.40;86.19;100967.95;113248;1198;22477;-58
2021/10/14 05:35:19;;;;;;;25.80;8.50;;;;;;;3.43;86.10;100967.98;113402;1198;22465;-57
2021/10/14 05:37:49;;;;;;;27.10;9.30;;;;;;;3.46;86.12;100973.70;113280;1198;24074;-58
2021/10/14 05:40:21;;;;;;;24.80;8.20;;;;;;;3.49;86.18;100973.36;113337;1198;22535;-61
2021/10/14 05:42:51;;;;;;;25.30;8.90;;;;;;;3.53;86.22;100972.04;113373;1194;22525;-58
2021/10/14 05:45:22;;;;;;;24.50;8.00;;;;;;;3.57;86.21;100970.34;113377;1198;23592;-58
2021/10/14 05:47:54;;;;;;;23.00;7.80;;;;;;;3.61;86.31;100973.36;113439;1190;23889;-59
2021/10/14 05:50:25;;;;;;;21.70;8.70;;;;;;;3.64;86.35;100970.17;113375;1192;25027;-59
2021/10/14 05:52:56;;;;;;;23.10;7.60;;;;;;;3.68;86.45;100962.23;113517;1198;26297;-58
2021/10/14 05:55:28;;;;;;;23.90;7.80;;;;;;;3.71;86.48;100964.25;113458;1198;25019;-59
2021/10/14 05:57:59;;;;;;;19.80;7.10;;;;;;;3.74;86.41;100961.83;113586;1198;24069;-60
2021/10/14 06:00:29;;;;;;;21.20;7.40;;;;;;;3.78;86.53;100961.86;113333;1198;22454;-60
2021/10/14 06:03:00;;;;;;;22.20;6.90;;;;;;;3.82;86.48;100959.91;113305;1198;24577;-58
2021/10/14 06:05:32;;;;;;;26.60;8.50;;;;;;;3.84;86.65;100959.86;113312;1198;25130;-60
2021/10/14 06:08:03;;;;;;;21.30;6.80;;;;;;;3.86;86.66;100958.83;113390;1192;22422;-59
2021/10/14 06:10:35;;;;;;;22.90;7.10;;;;;;;3.89;86.67;100957.45;113376;1198;22441;-60
2021/10/14 06:13:07;;;;;;;18.50;6.40;;;;;;;3.92;86.65;100958.41;113380;1198;25111;-60
2021/10/14 06:15:38;;;;;;;27.30;8.20;;;;;;;3.95;86.77;100963.04;113368;1193;25063;-59
2021/10/14 06:18:10;;;;;;;18.80;5.40;;;;;;;3.97;86.63;100963.88;113331;1198;25795;-60
2021/10/14 06:20:43;;;;;;;21.00;6.30;;;;;;;3.98;86.69;100962.02;113279;1192;24031;-59
2021/10/14 06:23:15;;;;;;;15.80;5.60;;;;;;;4.00;86.65;100963.76;113197;1193;22503;-59
2021/10/14 06:25:46;;;;;;;20.90;6.00;;;;;;;4.01;86.57;100965.95;113408;1198;22449;-58
2021/10/14 06:28:18;;;;;;;21.10;5.90;;;;;;;4.03;86.60;100971.66;112998;1193;23199;-59
2021/10/14 06:30:49;;;;;;;18.90;5.70;;;;;;;4.05;86.63;100968.96;113085;1198;24802;-59
2021/10/14 06:33:20;;;;;;;21.70;6.90;;;;;;;4.09;86.79;100967.34;113389;1198;25068;-58
2021/10/14 06:35:53;;;;;;;18.90;6.30;;;;;;;4.13;86.74;100968.23;113405;1198;25086;-60
2021/10/14 06:38:25;;;;;;;21.00;7.20;;;;;;;4.15;86.79;100971.50;113340;1198;25177;-60
2021/10/14 06:40:56;;;;;;;23.00;7.90;;;;;;;4.18;86.82;100973.03;113437;1198;23662;-59
2021/10/14 06:43:28;;;;;;;20.00;7.40;;;;;;;4.21;86.68;100972.77;113422;1198;25115;-58
2021/10/14 06:46:01;;;;;;;25.00;8.70;;;;;;;4.25;86.80;100970.09;113394;1190;23216;-59
2021/10/14 06:48:32;;;;;;;21.10;7.10;;;;;;;4.30;86.86;100972.14;113537;1198;25483;-60
2021/10/14 06:51:04;;;;;;;23.60;7.80;;;;;;;4.35;87.15;100968.74;113477;1198;22892;-58
2021/10/14 06:53:36;;;;;;;24.90;9.20;;;;;;;4.38;87.17;100967.34;113452;1198;25027;-60
2021/10/14 06:56:08;;;;;;;23.60;8.00;;;;;;;4.42;87.29;100969.02;113330;1198;23985;-59
2021/10/14 06:58:39;;;;;;;24.40;8.00;;;;;;;4.47;87.42;100968.73;113459;1198;22461;-60
2021/10/14 07:01:13;;;;;;;28.70;8.30;;;;;;;4.51;87.50;100968.55;113467;1198;23277;-59
2021/10/14 07:03:44;;;;;;;25.60;7.60;;;;;;;4.56;87.48;100966.02;113324;1193;22446;-59
2021/10/14 07:06:16;;;;;;;25.60;8.90;;;;;;;4.61;87.44;100971.64;113097;1198;22493;-58
2021/10/14 07:08:49;;;;;;;25.60;8.90;;;;;;;4.67;87.47;100972.16;113944;1198;25256;-59
2021/10/14 07:11:22;;;;;;;23.40;7.10;;;;;;;4.73;87.55;100969.37;113438;1198;22479;-57
2021/10/14 07:13:54;;;;;;;20.80;7.60;;;;;;;4.79;87.53;100965.23;113444;1198;22436;-60
2021/10/14 07:16:27;;;;;;;21.40;7.60;;;;;;;4.86;87.64;100968.44;113449;1198;26342;-60
2021/10/14 07:18:59;;;;;;;22.20;7.10;;;;;;;4.92;87.52;100968.47;113428;1198;22425;-59
2021/10/14 07:21:31;;;;;;;21.50;8.50;;;;;;;5.01;87.77;100968.71;113864;1198;25452;-60
2021/10/14 07:24:03;;;;;;;21.10;7.80;;;;;;;5.08;87.60;100967.00;113601;1198;22461;-60
2021/10/14 07:26:35;;;;;;;25.90;8.90;;;;;;;5.14;87.44;100966.39;113303;1190;22450;-59
2021/10/14 07:29:06;;;;;;;20.90;7.70;;;;;;;5.20;87.59;100970.16;113146;1198;22513;-59
2021/10/14 07:31:38;;;;;;;20.20;6.50;;;;;;;5.26;87.38;100967.44;113067;1193;25100;-59
2021/10/14 07:34:10;;;;;;;20.00;5.80;;;;;;;5.33;87.41;100966.19;113246;1193;24056;-58
2021/10/14 07:36:41;;;;;;;21.20;6.40;;;;;;;5.38;87.38;100957.01;113292;1198;25058;-59
2021/10/14 07:39:14;;;;;;;17.70;5.90;;;;;;;5.44;87.47;100960.58;113096;1190;24110;-60
2021/10/14 07:41:46;;;;;;;19.40;7.20;;;;;;;5.52;87.62;100961.53;113263;1193;22568;-60
2021/10/14 07:44:18;;;;;;;21.50;8.10;;;;;;;5.57;87.60;100963.23;113215;1198;25065;-59
2021/10/14 07:46:50;;;;;;;20.20;7.80;;;;;;;5.63;87.65;100960.73;113234;1198;22448;-59
2021/10/14 07:49:22;;;;;;;20.40;6.60;;;;;;;5.70;87.51;100957.80;113259;1192;25131;-58
2021/10/14 07:51:54;;;;;;;20.20;6.50;;;;;;;5.78;87.60;100962.80;112988;1198;22428;-60
2021/10/14 07:54:26;;;;;;;19.60;7.20;;;;;;;5.84;87.46;100962.77;113169;1193;25121;-59
2021/10/14 07:56:58;;;;;;;24.50;8.20;;;;;;;5.90;87.53;100962.78;113077;1190;26282;-58
2021/10/14 07:59:30;;;;;;;22.10;7.30;;;;;;;5.98;87.50;100963.17;113067;1198;25425;-59
2021/10/14 08:02:02;;;;;;;20.80;7.10;;;;;;;6.04;87.42;100966.99;113250;1198;24098;-58
2021/10/14 08:04:34;;;;;;;23.90;8.20;;;;;;;6.10;87.42;100972.16;113176;1198;24236;-59
2021/10/14 08:07:07;;;;;;;24.50;8.00;;;;;;;6.16;87.37;100975.11;113048;1183;22417;-59
2021/10/14 08:09:40;;;;;;;26.10;8.40;;;;;;;6.21;87.42;100972.61;113547;1198;22415;-59
2021/10/14 08:12:14;;;;;;;24.10;8.30;;;;;;;6.29;87.57;100968.55;113205;1191;22449;-59
2021/10/14 08:14:47;;;;;;;21.80;7.60;;;;;;;6.36;87.42;100970.67;113091;1198;24190;-59
2021/10/14 08:17:18;;;;;;;21.00;7.20;;;;;;;6.42;87.24;100971.15;113208;1198;22455;-59
2021/10/14 08:19:49;;;;;;;22.20;7.00;;;;;;;6.47;87.13;100969.83;113179;1190;24082;-58
2021/10/14 08:22:22;;;;;;;19.40;6.30;;;;;;;6.52;87.05;100968.54;113175;1192;25144;-59
2021/10/14 08:24:57;;;;;;;18.60;5.80;;;;;;;6.57;86.85;100968.19;113332;1198;22483;-60
2021/10/14 08:27:31;;;;;;;20.90;5.90;;;;;;;6.62;86.93;100970.04;113348;1190;25162;-59
2021/10/14 08:30:05;;;;;;;19.80;5.40;;;;;;;6.67;86.86;100968.88;114999;1198;25137;-60
2021/10/14 08:32:37;;;;;;;20.50;6.90;;;;;;;6.73;86.91;100968.95;113280;1198;22519;-58
2021/10/14 08:35:10;;;;;;;19.50;6.10;;;;;;;6.80;87.00;100962.77;113134;1193;22451;-59
2021/10/14 08:37:41;;;;;;;19.40;5.80;;;;;;;6.88;87.04;100965.63;113472;1190;25446;-59
2021/10/14 08:40:15;;;;;;;16.80;6.50;;;;;;;6.97;87.11;100963.02;113185;1198;25519;-59
2021/10/14 08:42:48;;;;;;;20.70;6.20;;;;;;;7.06;87.08;100959.85;113358;1198;22891;-60
2021/10/14 08:45:21;;;;;;;20.20;6.50;;;;;;;7.13;86.68;100959.02;113202;1192;25261;-58
2021/10/14 08:47:54;;;;;;;18.90;6.30;;;;;;;7.20;86.80;100958.66;113134;1193;25126;-60
2021/10/14 08:50:26;;;;;;;19.10;6.40;;;;;;;7.29;86.76;100956.98;113492;1183;22456;-59
2021/10/14 08:53:01;;;;;;;15.50;5.40;;;;;;;7.37;86.57;100959.23;113238;1198;22442;-60
2021/10/14 08:55:34;;;;;;;16.50;5.40;;;;;;;7.44;86.36;100957.11;113305;1198;22410;-58
2021/10/14 08:58:08;;;;;;;20.60;5.80;;;;;;;7.52;86.12;100957.14;113153;1193;22442;-59
2021/10/14 09:00:42;;;;;;;16.80;5.20;;;;;;;7.60;86.28;100954.10;113111;1198;22477;-58
2021/10/14 09:03:29;;;;;;;20.20;5.40;;;;;;;7.69;86.09;100949.16;113196;1190;24275;-59
2021/10/14 09:06:02;;;;;;;15.20;4.90;;;;;;;7.79;86.14;100943.05;113131;1198;22439;-60
2021/10/14 09:08:39;;;;;;;15.60;4.80;;;;;;;7.90;85.91;100943.77;113074;1190;23812;-60
2021/10/14 09:11:14;;;;;;;16.10;4.90;;;;;;;8.01;85.77;100943.02;113229;1198;23143;-59
2021/10/14 09:13:50;;;;;;;12.90;4.30;;;;;;;8.13;85.72;100943.04;113254;1194;24160;-59
2021/10/14 09:16:33;;;;;;;18.80;5.60;;;;;;;8.25;85.67;100943.14;113118;1192;22437;-60
2021/10/14 09:19:18;;;;;;;19.70;6.50;;;;;;;8.33;84.97;100942.02;113162;1198;22740;-58
2021/10/14 09:21:52;;;;;;;16.70;5.00;;;;;;;8.38;84.58;100946.61;113340;1198;25016;-58
2021/10/14 09:24:29;;;;;;;13.90;4.70;;;;;;;8.44;84.70;100949.05;113159;1192;23113;-59
2021/10/14 09:27:02;;;;;;;14.50;4.90;;;;;;;8.48;84.08;100945.50;113045;1198;22439;-61
2021/10/14 09:29:36;;;;;;;20.60;5.40;;;;;;;8.51;84.15;100942.63;113201;1198;25172;-59
2021/10/14 09:32:14;;;;;;;16.80;4.90;;;;;;;8.54;83.94;100940.84;113139;1193;22442;-60
2021/10/14 09:34:50;;;;;;;15.90;5.00;;;;;;;8.57;83.95;100938.02;113096;1193;25043;-59
2021/10/14 09:37:32;;;;;;;15.80;4.90;;;;;;;8.61;84.01;100931.30;113154;1193;26333;-60
2021/10/14 09:40:13;;;;;;;15.50;5.30;;;;;;;8.66;84.08;100929.61;113274;1198;22444;-60
2021/10/14 09:42:53;;;;;;;17.50;5.90;;;;;;;8.74;84.16;100933.70;113149;1198;22992;-59
2021/10/14 09:45:27;;;;;;;14.30;4.00;;;;;;;8.82;84.10;100932.17;113041;1198;22447;-59
2021/10/14 09:48:13;;;;;;;15.50;4.80;;;;;;;8.88;83.62;100929.34;113539;1198;25129;-58
2021/10/14 09:50:49;;;;;;;18.20;5.30;;;;;;;8.94;83.72;100928.01;113181;1198;26286;-60
2021/10/14 09:53:24;;;;;;;17.50;5.30;;;;;;;9.01;83.53;100927.63;113161;1198;22444;-59
2021/10/14 09:55:58;;;;;;;14.00;3.90;;;;;;;9.07;83.63;100931.13;113041;1198;22510;-60
2021/10/14 09:58:29;;;;;;;19.10;4.80;;;;;;;9.14;83.75;100932.38;113088;1177;22948;-60
2021/10/14 10:01:02;;;;;;;17.20;5.70;;;;;;;9.23;83.67;100929.93;113179;1198;22420;-60
2021/10/14 10:03:35;;;;;;;15.90;4.30;;;;;;;9.30;83.45;100928.71;113200;1198;22415;-58
2021/10/14 10:06:09;;;;;;;18.70;5.60;;;;;;;9.35;83.10;100926.84;113206;1192;22453;-61
2021/10/14 10:08:45;;;;;;;17.10;5.00;;;;;;;9.40;82.81;100927.92;113274;1193;26293;-60
2021/10/14 10:11:22;;;;;;;20.90;5.90;;;;;;;9.44;82.83;100924.05;113345;1198;25346;-60
2021/10/14 10:13:57;;;;;;;15.50;5.10;;;;;;;9.48;83.06;100920.69;113206;1192;22886;-61
2021/10/14 10:16:29;;;;;;;17.40;4.80;;;;;;;9.51;82.71;100922.27;113120;1193;22756;-60
2021/10/14 10:19:02;;;;;;;15.10;4.20;;;;;;;9.53;82.58;100922.08;113211;1198;26065;-60
2021/10/14 10:21:49;;;;;;;15.70;5.00;;;;;;;9.57;82.85;100922.83;113355;1190;22556;-60
2021/10/14 10:24:35;;;;;;;16.70;5.40;;;;;;;9.59;82.73;100918.77;113115;1198;23091;-60
2021/10/14 10:27:10;;;;;;;17.70;5.50;;;;;;;9.63;83.34;100914.65;113154;1198;22451;-60
2021/10/14 10:29:48;;;;;;;15.40;5.10;;;;;;;9.68;83.37;100908.48;113358;1198;22440;-61
2021/10/14 10:32:22;;;;;;;15.70;5.00;;;;;;;9.73;82.98;100907.39;113292;1192;26469;-64
2021/10/14 10:35:09;;;;;;;14.80;4.70;;;;;;;9.76;82.95;100902.23;113172;1198;22407;-59
2021/10/14 10:37:48;;;;;;;14.90;4.50;;;;;;;9.82;83.03;100895.52;113251;1193;25068;-60
2021/10/14 10:40:34;;;;;;;17.50;5.90;;;;;;;9.90;83.20;100888.58;113145;1198;23477;-59
2021/10/14 10:43:08;;;;;;;13.40;4.50;;;;;;;9.97;82.65;100883.77;113439;1198;24018;-60
2021/10/14 10:45:53;;;;;;;14.60;5.00;;;;;;;10.01;82.35;100884.77;113179;1198;24087;-60
2021/10/14 10:48:35;;;;;;;15.70;5.20;;;;;;;10.04;81.83;100883.45;113099;1198;24321;-63
2021/10/14 10:51:27;;;;;;;19.70;4.80;;;;;;;10.08;82.06;100881.38;113038;1198;22557;-60
2021/10/14 10:53:58;;;;;;;15.30;4.80;;;;;;;10.15;82.06;100878.66;113204;1198;25202;-61
2021/10/14 10:56:35;;;;;;;14.90;4.30;;;;;;;10.22;82.11;100872.65;113038;1184;24162;-59
2021/10/14 10:59:07;;;;;;;13.60;4.40;;;;;;;10.27;81.78;100866.02;113323;1198;22443;-60
2021/10/14 11:01:38;;;;;;;14.90;4.10;;;;;;;10.33;81.46;100863.70;113161;1198;25064;-61
2021/10/14 11:04:12;;;;;;;12.60;4.00;;;;;;;10.36;80.85;100860.96;113094;1198;24200;-61
2021/10/14 11:06:53;;;;;;;14.70;3.50;;;;;;;10.37;80.48;100859.26;113261;1198;22700;-61
2021/10/14 11:09:30;;;;;;;12.20;3.50;;;;;;;10.39;80.95;100859.79;113390;1193;23070;-59
2021/10/14 11:12:09;;;;;;;14.50;3.50;;;;;;;10.42;80.64;100858.05;113078;1198;22414;-60
2021/10/14 11:14:42;;;;;;;13.60;3.70;;;;;;;10.42;79.98;100859.98;113203;1198;22407;-61
2021/10/14 11:17:14;;;;;;;14.20;3.60;;;;;;;10.40;79.92;100862.15;113305;1198;22423;-60
2021/10/14 11:19:45;;;;;;;12.00;3.60;;;;;;;10.39;80.14;100856.73;113241;1198;22476;-62
2021/10/14 11:22:18;;;;;;;14.20;3.40;;;;;;;10.41;80.22;100849.11;113276;1198;22755;-60
2021/10/14 11:24:49;;;;;;;12.70;3.60;;;;;;;10.42;80.12;100846.41;113513;1198;22456;-60
2021/10/14 11:27:23;;;;;;;9.70;2.30;;;;;;;10.45;80.12;100842.61;113067;1198;22440;-60
2021/10/14 11:29:55;;;;;;;10.70;2.60;;;;;;;10.49;80.04;100832.81;113503;1198;22712;-61
2021/10/14 11:32:33;;;;;;;8.50;2.60;;;;;;;10.51;79.60;100833.65;113291;1198;25226;-60
2021/10/14 11:38:12;;;;;;;11.90;3.50;;;;;;;10.57;79.94;100830.14;113142;1198;25133;-61
2021/10/14 11:40:43;;;;;;;8.70;2.40;;;;;;;10.59;79.56;100832.80;113272;1192;25128;-61
2021/10/14 11:43:15;;;;;;;11.10;2.80;;;;;;;10.58;79.19;100830.15;113296;1193;22443;-61